.
WxDataArchive / Data Records for 2012-05-24
2012-05-23 May 2012 2012-05-25

Data Records for Thursday, 24 May 2012

Time	Temp	Chill	HIndex	Humid	Dewpt	 Wind 	HiWind	WindDir	Rain 	Barom 
-----	----	-----	------	-----	-----	------	------	-------	-----	----- 
00:00	68.6	68.6	68.6	61	54.6	0	0	---	0.00	29.825 
00:05	68.6	68.6	68.6	62	55.0	0	0	---	0.00	29.825 
00:10	68.4	68.4	68.4	62	54.9	0	0	---	0.00	29.825 
00:15	68.4	68.4	68.4	62	54.9	0	1	68	0.00	29.824 
00:20	68.4	68.4	68.4	62	54.9	0	0	---	0.00	29.824 
00:25	68.6	68.6	68.6	62	55.0	0	2	68	0.00	29.824 
00:30	68.6	68.6	68.6	62	55.0	0	1	68	0.00	29.824 
00:35	68.8	68.8	68.8	62	55.2	0	1	68	0.00	29.824 
00:40	68.9	68.9	68.9	62	55.3	0	2	68	0.00	29.824 
00:45	68.9	68.9	68.9	62	55.3	0	2	68	0.00	29.821 
00:50	68.9	68.9	68.9	62	55.3	0	1	68	0.00	29.821 
00:55	68.9	68.9	68.9	62	55.3	0	1	68	0.00	29.821 
01:00	68.9	68.9	68.9	62	55.3	0	1	68	0.00	29.818 
01:05	68.8	68.8	68.8	63	55.7	0	1	68	0.00	29.818 
01:10	68.4	68.4	68.4	63	55.3	0	1	68	0.00	29.818 
01:15	68.1	68.1	68.1	64	55.5	0	1	68	0.00	29.813 
01:20	67.8	67.8	67.8	65	55.6	0	0	---	0.00	29.813 
01:25	67.4	67.4	67.4	65	55.2	0	0	---	0.00	29.813 
01:30	67.1	67.1	67.1	66	55.4	0	0	---	0.00	29.813 
01:35	66.8	66.8	66.8	66	55.1	0	0	---	0.00	29.813 
01:40	66.4	66.4	66.4	67	55.1	0	0	---	0.00	29.813 
01:45	66.1	66.1	66.1	68	55.2	0	0	---	0.00	29.814 
01:50	65.8	65.8	65.8	69	55.3	0	0	---	0.00	29.814 
01:55	65.5	65.5	65.5	69	55.1	0	0	---	0.00	29.814 
02:00	65.3	65.3	65.3	70	55.3	0	0	---	0.00	29.819 
02:05	65.0	65.0	65.0	72	55.7	0	0	---	0.00	29.819 
02:10	64.7	64.7	64.7	72	55.5	0	0	---	0.00	29.819 
02:15	64.3	64.3	64.3	73	55.5	0	0	---	0.00	29.813 
02:20	64.2	64.2	64.2	74	55.7	0	0	---	0.00	29.813 
02:25	63.9	63.9	63.9	74	55.4	0	0	---	0.00	29.813 
02:30	63.5	63.5	63.5	74	55.1	0	0	---	0.00	29.818 
02:35	63.4	63.4	63.4	75	55.3	0	0	---	0.00	29.818 
02:40	63.1	63.1	63.1	76	55.4	0	0	---	0.00	29.818 
02:45	62.9	62.9	62.9	77	55.6	0	0	---	0.00	29.820 
02:50	62.7	62.7	62.7	78	55.7	0	0	---	0.00	29.820 
02:55	62.6	62.6	62.6	79	56.0	0	0	---	0.00	29.820 
03:00	62.4	62.4	62.4	79	55.8	0	0	---	0.00	29.826 
03:05	62.3	62.3	62.3	80	56.0	0	0	---	0.00	29.826 
03:10	62.1	62.1	62.1	80	55.9	0	0	---	0.00	29.826 
03:15	62.0	62.0	62.0	81	56.1	0	0	---	0.00	29.827 
03:20	62.0	62.0	62.0	81	56.1	0	0	---	0.00	29.827 
03:25	62.1	62.1	62.1	81	56.2	0	0	---	0.00	29.827 
03:30	62.3	62.3	62.3	81	56.4	0	0	---	0.00	29.827 
03:35	62.3	62.3	62.3	81	56.4	0	0	---	0.00	29.827 
03:40	62.1	62.1	62.1	81	56.2	0	0	---	0.00	29.827 
03:45	62.1	62.1	62.1	81	56.2	0	0	---	0.00	29.828 
03:50	62.0	62.0	62.0	81	56.1	0	0	---	0.00	29.828 
03:55	61.8	61.8	61.8	82	56.2	0	0	---	0.00	29.828 
04:00	61.6	61.6	61.6	82	56.0	0	0	---	0.00	29.830 
04:05	61.5	61.5	61.5	82	55.9	0	0	---	0.00	29.830 
04:10	61.5	61.5	61.5	83	56.3	0	0	---	0.00	29.830 
04:15	61.3	61.3	61.3	83	56.1	0	0	---	0.00	29.832 
04:20	61.2	61.2	61.2	83	56.0	0	0	---	0.00	29.832 
04:25	60.9	60.9	60.9	83	55.7	0	0	---	0.00	29.832 
04:30	60.7	60.7	60.7	84	55.8	0	0	---	0.00	29.831 
04:35	60.5	60.5	60.5	84	55.6	0	0	---	0.00	29.831 
04:40	60.2	60.2	60.2	84	55.3	0	0	---	0.00	29.831 
04:45	60.1	60.1	60.1	84	55.2	0	0	---	0.00	29.837 
04:50	60.1	60.1	60.1	85	55.6	0	0	---	0.00	29.837 
04:55	59.9	59.9	59.9	85	55.4	0	0	---	0.00	29.837 
05:00	59.8	59.8	59.8	85	55.3	0	0	---	0.00	29.840 
05:05	59.6	59.6	59.6	86	55.4	0	0	---	0.00	29.840 
05:10	59.5	59.5	59.5	86	55.3	0	0	---	0.00	29.840 
05:15	59.3	59.3	59.3	87	55.4	0	0	---	0.00	29.843 
05:20	59.3	59.3	59.3	87	55.4	0	0	---	0.00	29.843 
05:25	59.2	59.2	59.2	88	55.6	0	0	---	0.00	29.843 
05:30	59.0	59.0	59.0	88	55.4	0	0	---	0.00	29.845 
05:35	59.0	59.0	59.0	88	55.4	0	0	---	0.00	29.845 
05:40	59.0	59.0	59.0	88	55.4	0	0	---	0.00	29.845 
05:45	58.9	58.9	58.9	88	55.3	0	0	---	0.00	29.845 
05:50	58.7	58.7	58.7	89	55.5	0	0	---	0.00	29.845 
05:55	58.6	58.6	58.6	89	55.4	0	0	---	0.00	29.845 
06:00	58.6	58.6	58.6	89	55.4	0	0	---	0.00	29.848 
06:05	58.4	58.4	58.4	89	55.2	0	0	---	0.00	29.848 
06:10	58.4	58.4	58.4	89	55.2	0	0	---	0.00	29.848 
06:15	58.3	58.3	58.3	89	55.1	0	0	---	0.00	29.852 
06:20	58.1	58.1	58.1	90	55.2	0	0	---	0.00	29.852 
06:25	58.1	58.1	58.1	90	55.2	0	0	---	0.00	29.852 
06:30	58.0	58.0	58.0	90	55.1	0	0	---	0.00	29.855 
06:35	58.0	58.0	58.0	90	55.1	0	0	---	0.00	29.855 
06:40	58.0	58.0	58.0	91	55.4	0	0	---	0.00	29.855 
06:45	58.0	58.0	58.0	91	55.4	0	0	---	0.00	29.860 
06:50	58.1	58.1	58.1	91	55.5	0	0	---	0.00	29.860 
06:55	58.3	58.3	58.3	91	55.7	0	0	---	0.00	29.860 
07:00	58.4	58.4	58.4	91	55.8	0	0	---	0.00	29.863 
07:05	58.6	58.6	58.6	91	56.0	0	0	---	0.00	29.863 
07:10	58.7	58.7	58.7	91	56.1	0	0	---	0.00	29.863 
07:15	59.0	59.0	59.0	91	56.4	0	0	---	0.00	29.871 
07:20	59.5	59.5	59.5	92	57.2	0	0	---	0.00	29.871 
07:25	60.2	60.2	60.2	91	57.6	0	1	68	0.00	29.871 
07:30	61.2	61.2	61.2	88	57.6	0	1	68	0.00	29.875 
07:35	62.0	62.0	62.0	86	57.8	0	1	68	0.00	29.875 
07:40	62.7	62.7	62.7	84	57.8	0	1	68	0.00	29.875 
07:45	63.5	63.5	63.5	82	57.9	0	1	68	0.00	29.877 
07:50	64.5	64.5	64.5	80	58.2	0	1	22	0.00	29.877 
07:55	65.5	65.5	65.5	79	58.8	0	0	---	0.00	29.877 
08:00	66.3	66.3	66.3	77	58.9	0	0	---	0.00	29.883 
08:05	67.3	67.3	67.3	73	58.3	0	1	22	0.00	29.883 
08:10	67.9	67.9	67.9	73	58.9	0	1	22	0.00	29.883 
08:15	68.8	68.8	68.8	72	59.4	0	1	22	0.00	29.886 
08:20	69.6	69.6	69.6	69	59.0	0	1	22	0.00	29.886 
08:25	70.3	70.3	70.3	69	59.6	0	2	22	0.00	29.886 
08:30	70.6	70.6	70.6	68	59.5	0	1	22	0.00	29.885 
08:35	71.1	71.1	71.1	68	60.0	0	1	22	0.00	29.885 
08:40	71.8	71.8	71.8	66	59.8	0	1	22	0.00	29.885 
08:45	72.5	72.5	72.5	65	60.0	0	1	22	0.00	29.884 
08:50	73.0	73.0	73.0	65	60.5	0	1	22	0.00	29.884 
08:55	74.0	74.0	74.0	63	60.6	0	2	22	0.00	29.884 
09:00	74.9	74.9	74.9	63	61.4	0	3	22	0.00	29.882 
09:05	75.1	75.1	77.3	62	61.2	0	2	225	0.00	29.882 
09:10	75.3	75.3	77.5	61	60.9	0	2	135	0.00	29.882 
09:15	75.1	75.1	77.3	62	61.2	0	2	135	0.00	29.885 
09:20	75.6	75.6	77.7	60	60.7	0	2	135	0.00	29.885 
09:25	76.3	76.3	78.2	58	60.4	1	4	135	0.00	29.885 
09:30	76.7	76.7	78.5	59	61.3	0	2	90	0.00	29.881 
09:35	76.8	76.8	78.6	58	60.9	1	6	90	0.00	29.881 
09:40	76.8	76.8	78.6	58	60.9	1	3	90	0.00	29.881 
09:45	77.4	77.4	79.1	57	61.0	0	2	90	0.00	29.878 
09:50	78.1	78.1	79.6	56	61.1	0	2	90	0.00	29.878 
09:55	78.5	78.5	79.9	55	61.0	0	3	90	0.00	29.878 
10:00	78.5	78.5	79.8	54	60.4	1	5	90	0.00	29.869 
10:05	78.5	78.5	79.9	55	61.0	1	3	90	0.00	29.869 
10:10	78.6	78.6	79.9	54	60.5	1	3	112	0.00	29.869 
10:15	78.8	78.8	80.1	54	60.7	1	3	0	0.00	29.869 
10:20	79.0	79.0	80.2	53	60.4	0	2	0	0.00	29.869 
10:25	79.6	79.6	80.8	54	61.5	0	3	0	0.00	29.869 
10:30	80.1	80.1	81.1	52	60.9	0	2	22	0.00	29.865 
10:35	80.3	80.3	81.2	51	60.5	1	3	68	0.00	29.865 
10:40	80.3	80.3	81.1	50	59.9	1	3	292	0.00	29.865 
10:45	80.3	80.3	81.1	50	59.9	1	5	90	0.00	29.867 
10:50	80.5	80.5	81.3	50	60.1	0	4	112	0.00	29.867 
10:55	80.7	80.7	81.3	49	59.7	1	4	90	0.00	29.867 
11:00	81.2	81.2	81.6	47	59.0	1	3	90	0.00	29.860 
11:05	81.1	81.1	81.4	46	58.3	1	5	248	0.00	29.860 
11:10	80.9	80.9	81.3	47	58.8	1	4	248	0.00	29.860 
11:15	81.1	81.1	81.4	46	58.3	2	4	112	0.00	29.855 
11:20	81.4	81.4	81.8	47	59.2	2	5	90	0.00	29.855 
11:25	81.6	81.6	81.7	45	58.2	1	5	45	0.00	29.855 
11:30	81.8	81.8	81.9	45	58.4	2	4	90	0.00	29.852 
11:35	82.0	82.0	82.1	45	58.5	2	5	248	0.00	29.852 
11:40	82.2	82.2	82.1	44	58.1	1	5	90	0.00	29.852 
11:45	82.0	82.0	81.8	43	57.3	2	5	112	0.00	29.847 
11:50	82.4	82.4	82.6	46	59.5	1	3	112	0.00	29.847 
11:55	83.0	83.0	82.8	43	58.2	2	5	90	0.00	29.847 
12:00	83.0	83.0	82.5	41	56.8	2	6	45	0.00	29.840 
12:05	83.0	83.0	82.5	41	56.8	3	6	90	0.00	29.840 
12:10	82.4	82.4	81.9	41	56.3	1	4	90	0.00	29.840 
12:15	81.4	81.4	81.2	42	56.1	2	7	270	0.00	29.837 
12:20	81.8	81.8	81.6	43	57.1	2	7	315	0.00	29.837 
12:25	82.2	82.2	81.9	42	56.8	2	5	45	0.00	29.837 
12:30	82.2	82.2	81.6	40	55.4	2	5	90	0.00	29.837 
12:35	81.6	81.6	81.5	43	56.9	2	7	90	0.00	29.837 
12:40	81.6	81.6	81.5	43	56.9	2	6	112	0.00	29.837 
12:45	81.8	81.8	81.5	42	56.4	2	5	90	0.00	29.831 
12:50	82.8	82.8	82.6	43	58.0	1	6	112	0.00	29.831 
12:55	83.4	83.4	82.9	41	57.2	1	7	90	0.00	29.831 
13:00	83.0	83.0	82.2	39	55.5	1	7	315	0.00	29.824 
13:05	83.0	83.0	82.3	40	56.2	2	7	90	0.00	29.824 
13:10	83.6	83.6	82.8	39	56.0	2	6	112	0.00	29.824 
13:15	84.1	84.1	83.2	39	56.4	2	5	90	0.00	29.827 
13:20	84.5	84.5	83.3	37	55.3	2	5	68	0.00	29.827 
13:25	84.5	84.5	83.2	36	54.6	2	5	90	0.00	29.827 
13:30	84.1	84.1	83.2	39	56.4	1	3	22	0.00	29.823 
13:35	83.4	83.4	82.6	39	55.8	2	7	68	0.00	29.823 
13:40	82.8	82.8	82.2	40	56.0	1	4	90	0.00	29.823 
13:45	83.0	83.0	82.1	38	54.7	2	11	90	0.00	29.822 
13:50	83.2	83.2	82.3	38	54.9	2	6	90	0.00	29.822 
13:55	83.6	83.6	82.9	40	56.7	1	5	90	0.00	29.822 
14:00	84.1	84.1	83.2	39	56.4	2	5	270	0.00	29.814 
14:05	84.7	84.7	83.5	37	55.5	2	6	45	0.00	29.814 
14:10	84.9	84.9	83.6	36	54.9	3	7	90	0.00	29.814 
14:15	84.7	84.7	83.8	39	57.0	2	9	45	0.00	29.811 
14:20	84.5	84.5	83.6	39	56.8	2	6	45	0.00	29.811 
14:25	84.7	84.7	83.7	38	56.2	1	5	270	0.00	29.811 
14:30	85.3	85.3	84.0	36	55.3	2	4	90	0.00	29.807 
14:35	85.5	85.5	84.2	36	55.5	3	7	112	0.00	29.807 
14:40	85.3	85.3	83.8	35	54.5	3	9	90	0.00	29.807 
14:45	85.5	85.5	84.0	35	54.7	3	9	112	0.00	29.800 
14:50	85.7	85.7	84.0	34	54.1	1	4	90	0.00	29.800 
14:55	85.5	85.5	83.8	34	53.9	2	5	135	0.00	29.800 
15:00	85.7	85.7	84.0	34	54.1	3	9	68	0.00	29.797 
15:05	85.3	85.3	83.8	35	54.5	2	5	112	0.00	29.797 
15:10	85.3	85.3	83.6	34	53.7	2	4	90	0.00	29.797 
15:15	85.5	85.5	83.8	34	53.9	4	10	90	0.00	29.793 
15:20	86.1	86.1	84.3	33	53.6	2	5	90	0.00	29.793 
15:25	86.7	86.7	84.7	32	53.3	3	9	90	0.00	29.793 
15:30	87.0	87.0	84.7	30	51.8	2	6	270	0.00	29.782 
15:35	87.2	87.2	85.1	31	52.8	2	4	292	0.00	29.782 
15:40	87.6	87.6	85.8	33	54.9	1	5	90	0.00	29.782 
15:45	87.6	87.6	85.0	28	50.4	3	8	90	0.00	29.778 
15:50	87.4	87.4	85.1	30	52.1	3	6	90	0.00	29.778 
15:55	87.4	87.4	85.1	30	52.1	2	6	90	0.00	29.778 
16:00	87.2	87.2	84.8	29	51.0	2	5	90	0.00	29.778 
16:05	87.4	87.4	85.0	29	51.2	2	6	292	0.00	29.778 
16:10	87.6	87.6	85.0	28	50.4	2	6	248	0.00	29.778 
16:15	87.6	87.6	85.3	30	52.3	2	5	248	0.00	29.776 
16:20	87.8	87.8	85.4	29	51.5	1	5	68	0.00	29.776 
16:25	87.4	87.4	84.8	28	50.3	3	11	112	0.00	29.776 
16:30	86.3	86.3	84.0	30	51.2	3	6	90	0.00	29.778 
16:35	85.5	85.5	83.4	31	51.4	2	6	292	0.00	29.778 
16:40	85.5	85.5	83.6	32	52.2	1	3	90	0.00	29.778 
16:45	85.9	85.9	83.8	31	51.7	2	5	90	0.00	29.773 
16:50	85.9	85.9	83.9	32	52.6	1	5	112	0.00	29.773 
16:55	86.5	86.5	84.7	33	53.9	1	7	112	0.00	29.773 
17:00	86.7	86.7	84.6	31	52.4	2	6	45	0.00	29.769 
17:05	86.1	86.1	84.3	33	53.6	2	7	90	0.00	29.769 
17:10	85.7	85.7	83.9	33	53.2	1	3	112	0.00	29.769 
17:15	85.1	85.1	83.6	35	54.3	1	3	292	0.00	29.769 
17:20	84.7	84.7	83.0	33	52.4	2	7	90	0.00	29.769 
17:25	85.1	85.1	83.5	34	53.5	1	5	270	0.00	29.769 
17:30	85.7	85.7	83.9	33	53.2	2	7	248	0.00	29.765 
17:35	86.5	86.5	84.4	31	52.2	2	7	248	0.00	29.765 
17:40	86.7	86.7	84.7	32	53.3	2	7	270	0.00	29.765 
17:45	87.0	87.0	84.9	31	52.7	2	5	135	0.00	29.761 
17:50	86.7	86.7	84.7	32	53.3	2	6	315	0.00	29.761 
17:55	86.3	86.3	84.2	31	52.1	1	7	270	0.00	29.761 
18:00	86.3	86.3	84.2	31	52.1	2	6	90	0.00	29.758 
18:05	85.9	85.9	83.8	31	51.7	3	6	112	0.00	29.758 
18:10	85.9	85.9	83.8	31	51.7	1	4	90	0.00	29.758 
18:15	85.5	85.5	83.4	31	51.4	2	4	248	0.00	29.750 
18:20	85.5	85.5	83.4	31	51.4	2	4	112	0.00	29.750 
18:25	85.1	85.1	83.1	31	51.0	1	5	22	0.00	29.750 
18:30	84.9	84.9	82.9	31	50.9	2	5	0	0.00	29.745 
18:35	84.7	84.7	82.7	31	50.7	2	6	90	0.00	29.745 
18:40	84.7	84.7	82.7	31	50.7	1	4	22	0.00	29.745 
18:45	84.7	84.7	82.6	30	49.8	2	6	248	0.00	29.745 
18:50	84.5	84.5	82.5	31	50.5	1	4	68	0.00	29.745 
18:55	84.5	84.5	82.5	31	50.5	1	4	270	0.00	29.745 
19:00	84.5	84.5	82.5	31	50.5	2	6	90	0.00	29.737 
19:05	84.3	84.3	82.4	31	50.3	2	5	22	0.00	29.737 
19:10	84.0	84.0	82.1	31	50.1	2	7	248	0.00	29.737 
19:15	84.0	84.0	82.2	32	50.9	1	3	225	0.00	29.731 
19:20	83.8	83.8	82.2	33	51.6	1	3	292	0.00	29.731 
19:25	83.8	83.8	82.2	33	51.6	1	5	90	0.00	29.731 
19:30	83.6	83.6	82.0	33	51.4	1	4	68	0.00	29.732 
19:35	83.4	83.4	81.8	33	51.2	1	6	45	0.00	29.732 
19:40	83.4	83.4	81.9	34	52.1	2	5	90	0.00	29.732 
19:45	83.2	83.2	81.7	33	51.1	3	11	90	0.00	29.730 
19:50	83.2	83.2	81.7	33	51.1	2	9	68	0.00	29.730 
19:55	83.2	83.2	81.7	33	51.1	1	6	90	0.00	29.730 
20:00	83.0	83.0	81.4	32	50.1	2	5	112	0.00	29.730 
20:05	82.8	82.8	81.2	32	49.9	1	4	68	0.00	29.730 
20:10	82.6	82.6	81.1	32	49.7	1	4	112	0.00	29.730 
20:15	82.4	82.4	80.9	32	49.5	2	7	112	0.00	29.724 
20:20	82.4	82.4	80.9	32	49.5	2	6	112	0.00	29.724 
20:25	82.2	82.2	80.9	33	50.2	2	4	90	0.00	29.724 
20:30	81.8	81.8	80.6	33	49.9	2	4	90	0.00	29.720 
20:35	81.6	81.6	80.5	33	49.7	1	5	90	0.00	29.720 
20:40	81.4	81.4	80.3	33	49.5	1	6	90	0.00	29.720 
20:45	81.1	81.1	80.1	33	49.2	1	3	112	0.00	29.721 
20:50	80.9	80.9	80.0	33	49.1	1	3	22	0.00	29.721 
20:55	80.5	80.5	79.7	33	48.7	1	4	22	0.00	29.721 
21:00	80.3	80.3	79.6	33	48.5	2	6	90	0.00	29.725 
21:05	80.1	80.1	79.5	34	49.2	1	4	112	0.00	29.725 
21:10	79.9	79.9	79.4	34	49.0	1	7	112	0.00	29.725 
21:15	79.8	79.8	79.4	35	49.7	2	4	90	0.00	29.725 
21:20	79.6	79.6	79.3	35	49.5	2	5	90	0.00	29.725 
21:25	79.4	79.4	79.2	36	50.1	1	6	135	0.00	29.725 
21:30	79.2	79.2	79.1	36	49.9	1	3	112	0.00	29.738 
21:35	79.0	79.0	79.1	37	50.5	1	4	112	0.00	29.738 
21:40	78.8	78.8	79.0	38	51.0	1	4	68	0.00	29.738 
21:45	78.6	78.6	79.0	39	51.5	1	4	90	0.00	29.743 
21:50	78.5	78.5	79.0	40	52.1	2	6	112	0.00	29.743 
21:55	78.3	78.3	78.9	40	52.0	2	7	90	0.00	29.743 
22:00	78.3	78.3	78.9	40	52.0	1	4	90	0.00	29.755 
22:05	78.1	78.1	78.8	40	51.8	1	4	68	0.00	29.755 
22:10	77.9	77.9	78.7	41	52.3	1	3	22	0.00	29.755 
22:15	77.7	77.7	78.6	41	52.1	1	5	112	0.00	29.762 
22:20	77.7	77.7	78.6	41	52.1	1	4	0	0.00	29.762 
22:25	77.6	77.6	78.6	42	52.7	1	4	90	0.00	29.762 
22:30	77.6	77.6	78.6	42	52.7	1	4	112	0.00	29.767 
22:35	77.4	77.4	78.5	42	52.5	1	5	90	0.00	29.767 
22:40	77.6	77.6	78.6	42	52.7	2	5	90	0.00	29.767 
22:45	77.4	77.4	78.5	42	52.5	1	4	135	0.00	29.768 
22:50	77.4	77.4	78.6	43	53.1	1	3	68	0.00	29.768 
22:55	77.2	77.2	78.5	43	52.9	1	4	68	0.00	29.768 
23:00	77.0	77.0	78.4	43	52.8	2	4	112	0.00	29.769 
23:05	77.0	77.0	78.4	43	52.8	1	5	45	0.00	29.769 
23:10	76.8	76.8	78.3	44	53.2	1	4	90	0.00	29.769 
23:15	76.7	76.7	78.3	44	53.1	1	5	112	0.00	29.774 
23:20	76.5	76.5	78.2	44	52.9	0	2	112	0.00	29.774 
23:25	76.3	76.3	78.1	45	53.4	0	2	68	0.00	29.774 
23:30	76.1	76.1	78.0	45	53.2	1	6	68	0.00	29.784 
23:35	76.0	76.0	78.0	45	53.1	0	2	338	0.00	29.784 
23:40	75.6	75.6	77.8	46	53.3	0	2	180	0.00	29.784 
23:45	75.6	75.6	77.8	46	53.3	1	3	158	0.00	29.785 
23:50	75.4	75.4	77.8	46	53.2	0	2	158	0.00	29.785 
23:55	75.3	75.3	77.7	46	53.1	0	1	158	0.00	29.785 

CoCoRaHS
IN-AL-39
A2 Web Hosting
Creative Commons License
GoDaddy
search engine by freefind advanced

loaded 2018-11-21 00:43:58 • last modified 2010-11-18 10:43:29
Privacy PolicyDisclaimer
• wx.awcolley.com is powered by PmWiki v.2002016 •
• all content (unless otherwise noted) © 2018 A W Colley